createdAt,value
2022-09-20T00:01:33.357Z,79.33
2022-09-20T00:04:05.783Z,79.33
2022-09-20T00:06:34.383Z,79.45
2022-09-20T00:09:03.815Z,79.42
2022-09-20T00:11:34.596Z,79.66
2022-09-20T00:14:06.142Z,79.13
2022-09-20T00:16:38.290Z,78.57
2022-09-20T00:19:08.066Z,78.36
2022-09-20T00:21:38.082Z,78.81
2022-09-20T00:24:06.319Z,78.90
2022-09-20T00:26:34.461Z,78.29
2022-09-20T00:29:02.728Z,78.79
2022-09-20T00:31:30.947Z,79.26
2022-09-20T00:34:17.914Z,78.74
2022-09-20T00:36:46.708Z,79.01
2022-09-20T00:39:16.622Z,79.31
2022-09-20T00:41:45.014Z,79.55
2022-09-20T00:44:57.717Z,79.92
2022-09-20T00:47:36.641Z,79.82
2022-09-20T00:50:22.953Z,79.91
2022-09-20T00:52:57.156Z,79.91
2022-09-20T00:55:26.516Z,79.31
2022-09-20T00:57:55.243Z,78.47
2022-09-20T01:00:23.318Z,78.06
2022-09-20T01:02:57.038Z,78.01
2022-09-20T01:05:26.136Z,77.80
2022-09-20T01:07:55.218Z,77.68
2022-09-20T01:10:23.290Z,77.21
2022-09-20T01:12:53.816Z,77.07
2022-09-20T01:15:23.479Z,76.87
2022-09-20T01:17:54.382Z,77.12
2022-09-20T01:20:32.366Z,77.70
2022-09-20T01:23:34.580Z,78.39
2022-09-20T01:26:17.664Z,78.55
2022-09-20T01:28:48.850Z,79.58
2022-09-20T01:31:26.075Z,80.44
2022-09-20T01:34:01.539Z,81.35
2022-09-20T01:37:01.867Z,82.03
2022-09-20T01:39:50.317Z,81.78
2022-09-20T01:42:18.491Z,82.12
2022-09-20T01:45:01.616Z,82.89
2022-09-20T01:48:07.883Z,82.83
2022-09-20T01:51:26.439Z,81.99
2022-09-20T01:54:03.425Z,82.95
2022-09-20T01:56:49.519Z,82.85
2022-09-20T01:59:32.709Z,82.46
2022-09-20T02:02:14.063Z,82.38
2022-09-20T02:04:51.730Z,83.01
2022-09-20T02:07:39.555Z,82.10
2022-09-20T02:10:07.778Z,81.98
2022-09-20T02:12:41.857Z,81.85
2022-09-20T02:15:57.837Z,81.74
2022-09-20T02:18:40.965Z,82.51
2022-09-20T02:21:29.237Z,82.44
2022-09-20T02:24:21.959Z,82.20
2022-09-20T02:26:58.944Z,82.01
2022-09-20T02:29:58.140Z,81.55
2022-09-20T02:33:03.593Z,82.01
2022-09-20T02:35:49.991Z,82.05
2022-09-20T02:38:55.285Z,81.11
2022-09-20T02:41:50.952Z,80.81
2022-09-20T02:44:22.816Z,81.09
2022-09-20T02:47:25.656Z,80.99
2022-09-20T02:50:06.268Z,80.89
2022-09-20T02:53:15.819Z,80.62
2022-09-20T02:56:07.642Z,80.09
2022-09-20T02:58:48.821Z,80.04
2022-09-20T03:01:33.514Z,79.64
2022-09-20T03:04:45.997Z,79.35
2022-09-20T03:07:40.075Z,79.54
2022-09-20T03:10:39.687Z,79.46
2022-09-20T03:13:13.597Z,79.85
2022-09-20T03:16:07.698Z,79.76
2022-09-20T03:19:03.194Z,79.78
2022-09-20T03:21:34.132Z,80.15
2022-09-20T03:24:02.106Z,79.86
2022-09-20T03:26:56.701Z,79.78
2022-09-20T03:29:39.923Z,80.13
2022-09-20T03:32:19.861Z,80.75
2022-09-20T03:34:56.859Z,81.01
2022-09-20T03:37:55.404Z,80.81
2022-09-20T03:40:51.477Z,80.18
2022-09-20T03:43:37.883Z,80.47
2022-09-20T03:46:21.804Z,80.44
2022-09-20T03:49:04.854Z,80.91
2022-09-20T03:51:41.407Z,81.54
2022-09-20T03:54:41.945Z,81.01
2022-09-20T03:57:27.935Z,81.00
2022-09-20T04:00:34.199Z,81.00
2022-09-20T04:03:20.094Z,81.19
2022-09-20T04:06:03.854Z,81.13
2022-09-20T04:09:09.684Z,81.06
2022-09-20T04:12:14.971Z,81.07
2022-09-20T04:14:54.550Z,81.31
2022-09-20T04:17:36.264Z,82.15
2022-09-20T04:20:21.444Z,81.67
2022-09-20T04:22:53.409Z,81.76
2022-09-20T04:25:27.938Z,81.59
2022-09-20T04:28:03.086Z,80.72
2022-09-20T04:30:37.602Z,80.94
2022-09-20T04:33:15.174Z,80.96
2022-09-20T04:36:29.331Z,80.37
2022-09-20T04:39:18.708Z,80.28
2022-09-20T04:42:01.835Z,80.95
2022-09-20T04:44:46.182Z,81.31
2022-09-20T04:47:39.032Z,79.69
2022-09-20T04:50:31.620Z,79.49
2022-09-20T04:53:24.447Z,79.60
2022-09-20T04:56:02.134Z,79.89
2022-09-20T04:58:47.201Z,79.63
2022-09-20T05:01:32.392Z,79.30
2022-09-20T05:04:25.303Z,78.79
2022-09-20T05:06:56.074Z,79.01
2022-09-20T05:09:37.956Z,79.69
2022-09-20T05:12:30.835Z,79.68
2022-09-20T05:15:20.253Z,78.80
2022-09-20T05:18:01.673Z,78.31
2022-09-20T05:20:48.076Z,78.60
2022-09-20T05:23:34.377Z,78.67
2022-09-20T05:26:29.783Z,77.83
2022-09-20T05:29:18.231Z,78.20
2022-09-20T05:32:23.270Z,78.14
2022-09-20T05:35:13.057Z,78.22
2022-09-20T05:38:00.180Z,77.83
2022-09-20T05:41:17.616Z,77.53
2022-09-20T05:44:23.977Z,78.59
2022-09-20T05:46:57.780Z,79.31
2022-09-20T05:49:50.730Z,78.62
2022-09-20T05:52:40.209Z,78.64
2022-09-20T05:55:17.185Z,78.51
2022-09-20T05:57:57.032Z,78.61
2022-09-20T06:00:32.006Z,79.24
2022-09-20T06:03:15.703Z,79.92
2022-09-20T06:06:02.107Z,80.40
2022-09-20T06:08:39.062Z,80.19
2022-09-20T06:11:37.743Z,80.08
2022-09-20T06:14:25.508Z,79.91
2022-09-20T06:17:05.363Z,79.52
2022-09-20T06:20:04.054Z,79.61
2022-09-20T06:22:42.857Z,78.99
2022-09-20T06:25:15.371Z,78.42
2022-09-20T06:27:51.916Z,78.51
2022-09-20T06:30:40.867Z,77.87
2022-09-20T06:33:15.915Z,77.82
2022-09-20T06:35:56.950Z,77.20
2022-09-20T06:39:04.465Z,76.70
2022-09-20T06:41:34.918Z,76.62
2022-09-20T06:44:06.617Z,75.86
2022-09-20T06:46:36.716Z,76.29
2022-09-20T06:49:07.091Z,75.64
2022-09-20T06:51:39.897Z,75.45
2022-09-20T06:54:12.792Z,75.35
2022-09-20T06:56:40.860Z,76.13
2022-09-20T06:59:10.565Z,75.46
2022-09-20T07:01:39.267Z,74.74
2022-09-20T07:04:09.495Z,74.72
2022-09-20T07:06:37.858Z,74.80
2022-09-20T07:09:06.338Z,74.84
2022-09-20T07:11:35.142Z,74.96
2022-09-20T07:14:03.624Z,75.12
2022-09-20T07:16:31.701Z,74.97
2022-09-20T07:19:00.671Z,75.34
2022-09-20T07:21:28.742Z,75.60
2022-09-20T07:23:58.143Z,74.94
2022-09-20T07:26:28.773Z,74.69
2022-09-20T07:28:59.075Z,73.98
2022-09-20T07:31:28.792Z,71.98
2022-09-20T07:33:56.986Z,71.68
2022-09-20T07:36:25.466Z,72.55
2022-09-20T07:38:53.689Z,72.51
2022-09-20T07:41:23.452Z,72.28
2022-09-20T07:43:51.961Z,71.21
2022-09-20T07:46:24.308Z,71.48
2022-09-20T07:48:52.485Z,70.71
2022-09-20T07:51:20.452Z,70.24
2022-09-20T07:53:48.353Z,69.54
2022-09-20T07:56:18.458Z,68.88
2022-09-20T07:58:52.214Z,69.38
2022-09-20T08:01:22.699Z,69.33
2022-09-20T08:03:52.177Z,68.34
2022-09-20T08:06:21.507Z,67.04
2022-09-20T08:08:51.778Z,67.84
2022-09-20T08:11:27.713Z,68.86
2022-09-20T08:14:06.217Z,68.74
2022-09-20T08:16:40.889Z,68.50
2022-09-20T08:19:10.828Z,68.98
2022-09-20T08:21:39.094Z,68.93
2022-09-20T08:24:07.472Z,68.66
2022-09-20T08:26:35.982Z,67.90
2022-09-20T08:29:08.034Z,65.29
2022-09-20T08:31:40.347Z,64.03
2022-09-20T08:34:14.131Z,65.11
2022-09-20T08:36:46.316Z,65.24
2022-09-20T08:42:24.185Z,66.37
2022-09-20T08:44:58.652Z,67.04
2022-09-20T08:47:33.237Z,67.62
2022-09-20T08:50:17.539Z,67.58
2022-09-20T08:52:53.813Z,67.43
2022-09-20T08:55:37.691Z,66.88
2022-09-20T08:58:08.854Z,65.81
2022-09-20T09:00:39.277Z,65.11
2022-09-20T09:03:13.377Z,64.26
2022-09-20T09:05:46.588Z,64.17
2022-09-20T09:08:18.417Z,63.42
2022-09-20T09:10:54.205Z,63.01
2022-09-20T09:14:31.695Z,62.34
2022-09-20T09:17:00.965Z,61.94
2022-09-20T09:19:34.105Z,60.84
2022-09-20T09:22:05.930Z,61.74
2022-09-20T09:24:33.884Z,62.01
2022-09-20T09:27:20.074Z,62.69
2022-09-20T09:29:53.422Z,62.24
2022-09-20T09:32:25.142Z,62.80
2022-09-20T09:34:53.109Z,62.74
2022-09-20T09:37:31.841Z,63.24
2022-09-20T09:40:05.999Z,64.35
2022-09-20T09:42:34.129Z,65.67
2022-09-20T09:45:13.772Z,65.61
2022-09-20T09:47:41.704Z,64.06
2022-09-20T09:50:22.853Z,64.30
2022-09-20T09:53:02.963Z,64.19
2022-09-20T09:55:52.786Z,64.26
2022-09-20T09:58:28.702Z,63.20
2022-09-20T10:01:00.735Z,63.31
2022-09-20T10:04:07.418Z,62.99
2022-09-20T10:06:52.554Z,62.59
2022-09-20T10:09:46.050Z,61.35
2022-09-20T10:12:20.882Z,58.71
2022-09-20T10:15:23.180Z,58.64
2022-09-20T10:18:22.088Z,59.21
2022-09-20T10:21:25.595Z,58.56
2022-09-20T10:24:17.001Z,58.04
2022-09-20T10:26:50.921Z,58.27
2022-09-20T10:29:40.003Z,57.16
2022-09-20T10:32:32.225Z,57.54
2022-09-20T10:35:27.742Z,57.88
2022-09-20T10:38:21.836Z,57.85
2022-09-20T10:41:17.322Z,56.72
2022-09-20T10:44:05.952Z,54.76
2022-09-20T10:46:46.187Z,53.73
2022-09-20T10:49:50.986Z,54.35
2022-09-20T10:52:22.857Z,52.77
2022-09-20T10:55:09.475Z,51.73
2022-09-20T10:57:45.867Z,52.27
2022-09-20T11:00:21.386Z,51.69
2022-09-20T11:03:16.840Z,51.41
2022-09-20T11:06:10.236Z,52.93
2022-09-20T11:08:40.909Z,53.05
2022-09-20T11:11:13.347Z,53.26
2022-09-20T11:13:50.005Z,52.69
2022-09-20T11:16:23.428Z,52.58
2022-09-20T11:19:05.507Z,52.03
2022-09-20T11:21:52.683Z,50.91
2022-09-20T11:24:28.616Z,48.78
2022-09-20T11:27:15.913Z,46.75
2022-09-20T11:30:20.442Z,46.21
2022-09-20T11:32:53.223Z,46.51
2022-09-20T11:35:58.188Z,43.97
2022-09-20T11:38:37.494Z,42.85
2022-09-20T11:41:29.536Z,43.27
2022-09-20T11:44:07.856Z,42.77
2022-09-20T11:46:53.425Z,43.21
2022-09-20T11:49:26.997Z,42.99
2022-09-20T11:52:21.926Z,42.29
2022-09-20T11:54:55.860Z,43.21
2022-09-20T11:57:24.723Z,42.08
2022-09-20T11:59:56.705Z,42.83
2022-09-20T12:02:46.637Z,41.82
2022-09-20T12:05:33.060Z,41.90
2022-09-20T12:08:05.855Z,41.18
2022-09-20T12:10:39.573Z,41.55
2022-09-20T12:13:22.111Z,41.90
2022-09-20T12:16:09.534Z,42.89
2022-09-20T12:18:47.861Z,44.06
2022-09-20T12:21:20.909Z,43.13
2022-09-20T12:23:58.087Z,42.95
2022-09-20T12:26:25.951Z,43.26
2022-09-20T12:28:56.687Z,43.82
2022-09-20T12:31:33.764Z,44.96
2022-09-20T12:34:13.922Z,44.14
2022-09-20T12:36:54.699Z,44.17
2022-09-20T12:39:30.258Z,44.84
2022-09-20T12:41:58.786Z,44.30
2022-09-20T12:44:31.829Z,44.02
2022-09-20T12:47:11.676Z,43.83
2022-09-20T12:50:04.192Z,44.53
2022-09-20T12:52:50.457Z,44.84
2022-09-20T12:55:27.587Z,45.27
2022-09-20T12:58:02.105Z,46.02
2022-09-20T13:00:38.254Z,48.33
2022-09-20T13:03:15.562Z,49.72
2022-09-20T13:05:52.682Z,50.43
2022-09-20T13:08:23.503Z,50.64
2022-09-20T13:11:07.114Z,50.83
2022-09-20T13:13:47.734Z,50.09
2022-09-20T13:16:24.150Z,50.17
2022-09-20T13:19:18.557Z,49.90
2022-09-20T13:22:10.470Z,50.13
2022-09-20T13:24:45.238Z,49.37
2022-09-20T13:27:22.482Z,49.51
2022-09-20T13:29:51.050Z,47.66
2022-09-20T13:32:23.751Z,45.38
2022-09-20T13:35:10.056Z,42.77
2022-09-20T13:38:03.110Z,40.11
2022-09-20T13:40:48.000Z,39.36
2022-09-20T13:43:24.618Z,37.62
2022-09-20T13:45:57.420Z,37.11
2022-09-20T13:48:30.332Z,37.13
2022-09-20T13:50:59.322Z,37.23
2022-09-20T13:53:41.890Z,37.62
2022-09-20T13:56:30.167Z,37.57
2022-09-20T13:59:05.263Z,39.04
2022-09-20T14:01:35.991Z,39.50
2022-09-20T14:04:08.888Z,39.64
2022-09-20T14:06:37.204Z,39.75
2022-09-20T14:09:11.005Z,40.35
2022-09-20T14:11:40.304Z,39.66
2022-09-20T14:14:10.556Z,40.69
2022-09-20T14:16:41.668Z,41.17
2022-09-20T14:19:15.678Z,41.70
2022-09-20T14:21:44.682Z,41.96
2022-09-20T14:24:15.714Z,43.09
2022-09-20T14:27:04.470Z,43.52
2022-09-20T14:29:40.128Z,43.99
2022-09-20T14:32:08.088Z,43.77
2022-09-20T14:34:38.213Z,44.88
2022-09-20T14:37:14.323Z,47.21
2022-09-20T14:39:54.118Z,49.46
2022-09-20T14:42:51.168Z,50.90
2022-09-20T14:45:24.615Z,51.42
2022-09-20T14:48:00.095Z,52.49
2022-09-20T14:50:40.808Z,54.75
2022-09-20T14:53:12.436Z,54.47
2022-09-20T14:55:55.573Z,54.85
2022-09-20T14:58:27.353Z,53.51
2022-09-20T15:01:01.382Z,53.51
2022-09-20T15:03:41.220Z,53.00
2022-09-20T15:06:14.838Z,52.84
2022-09-20T15:08:46.509Z,53.35
2022-09-20T15:11:16.050Z,52.26
2022-09-20T15:13:44.737Z,51.63
2022-09-20T15:16:14.982Z,51.17
2022-09-20T15:18:44.149Z,50.26
2022-09-20T15:21:12.392Z,50.72
2022-09-20T15:23:41.012Z,50.91
2022-09-20T15:26:12.051Z,50.35
2022-09-20T15:28:40.536Z,50.89
2022-09-20T15:31:10.929Z,52.32
2022-09-20T15:33:39.233Z,53.71
2022-09-20T15:36:08.231Z,55.02
2022-09-20T15:38:36.204Z,55.84
2022-09-20T15:41:04.883Z,57.23
2022-09-20T15:43:34.188Z,58.97
2022-09-20T15:46:19.728Z,59.33
2022-09-20T15:48:48.269Z,59.74
2022-09-20T15:51:16.850Z,59.21
2022-09-20T15:53:56.777Z,59.38
2022-09-20T15:56:28.129Z,60.51
2022-09-20T15:58:59.526Z,61.30
2022-09-20T16:01:33.820Z,61.00
2022-09-20T16:04:08.667Z,61.49
2022-09-20T16:06:38.618Z,62.60
2022-09-20T16:09:07.651Z,62.98
2022-09-20T16:11:36.088Z,64.23
2022-09-20T16:14:04.809Z,64.63
2022-09-20T16:16:39.146Z,65.41
2022-09-20T16:19:24.012Z,66.11
2022-09-20T16:21:58.658Z,65.95
2022-09-20T16:24:30.904Z,66.64
2022-09-20T16:27:01.339Z,66.83
2022-09-20T16:29:31.332Z,67.55
2022-09-20T16:32:00.953Z,68.66
2022-09-20T16:34:32.392Z,68.67
2022-09-20T16:37:06.706Z,68.57
2022-09-20T16:39:34.792Z,67.66
2022-09-20T16:42:05.365Z,68.64
2022-09-20T16:44:35.634Z,68.37
2022-09-20T16:47:09.144Z,68.57
2022-09-20T16:49:38.030Z,69.33
2022-09-20T16:52:07.220Z,68.69
2022-09-20T16:54:35.808Z,67.55
2022-09-20T16:57:05.226Z,68.17
2022-09-20T16:59:33.289Z,68.38
2022-09-20T17:02:01.330Z,69.22
2022-09-20T17:04:30.343Z,68.75
2022-09-20T17:06:58.939Z,69.74
2022-09-20T17:09:28.377Z,69.83
2022-09-20T17:11:56.719Z,70.29
2022-09-20T17:14:25.703Z,70.46
2022-09-20T17:16:53.879Z,71.20
2022-09-20T17:19:21.955Z,70.72
2022-09-20T17:21:51.291Z,68.78
2022-09-20T17:24:22.805Z,68.44
2022-09-20T17:26:51.898Z,69.06
2022-09-20T17:29:20.901Z,69.18
2022-09-20T17:31:55.655Z,69.46
2022-09-20T17:34:28.206Z,69.41
2022-09-20T17:36:56.302Z,69.19
2022-09-20T17:39:24.752Z,69.46
2022-09-20T17:41:53.029Z,69.63
2022-09-20T17:44:21.309Z,69.57
2022-09-20T17:46:51.089Z,69.06
2022-09-20T17:49:21.038Z,69.63
2022-09-20T17:51:54.697Z,69.19
2022-09-20T17:54:24.798Z,69.56
2022-09-20T17:56:56.111Z,70.31
2022-09-20T17:59:24.935Z,69.63
2022-09-20T18:01:54.529Z,69.79
2022-09-20T18:04:24.756Z,70.00
2022-09-20T18:06:54.234Z,69.49
2022-09-20T18:09:25.025Z,70.08
2022-09-20T18:11:54.979Z,70.44
2022-09-20T18:14:25.951Z,70.46
2022-09-20T18:16:58.215Z,69.67
2022-09-20T18:19:33.089Z,69.25
2022-09-20T18:22:02.347Z,69.26
2022-09-20T18:24:31.694Z,70.40
2022-09-20T18:27:01.212Z,70.41
2022-09-20T18:29:31.857Z,69.85
2022-09-20T18:32:00.958Z,70.49
2022-09-20T18:34:33.599Z,70.70
2022-09-20T18:37:03.947Z,70.74
2022-09-20T18:39:35.039Z,70.81
2022-09-20T18:42:04.098Z,70.46
2022-09-20T18:44:34.004Z,71.19
2022-09-20T18:47:04.238Z,70.57
2022-09-20T18:49:32.714Z,71.56
2022-09-20T18:52:01.200Z,71.30
2022-09-20T18:54:33.651Z,72.00
2022-09-20T18:57:02.683Z,72.39
2022-09-20T18:59:31.017Z,72.66
2022-09-20T19:02:27.482Z,73.06
2022-09-20T19:05:15.010Z,73.22
2022-09-20T19:08:21.900Z,73.68
2022-09-20T19:10:56.560Z,73.74
2022-09-20T19:13:24.491Z,73.81
2022-09-20T19:16:06.043Z,74.06
2022-09-20T19:19:07.835Z,74.40
2022-09-20T19:21:41.956Z,75.28
2022-09-20T19:24:25.304Z,75.18
2022-09-20T19:26:53.761Z,75.05
2022-09-20T19:29:25.333Z,73.08
2022-09-20T19:31:56.270Z,71.78
2022-09-20T19:34:27.929Z,72.32
2022-09-20T19:37:18.841Z,72.99
2022-09-20T19:40:05.683Z,73.42
2022-09-20T19:42:47.824Z,73.94
2022-09-20T19:45:42.203Z,75.35
2022-09-20T19:48:22.084Z,75.08
2022-09-20T19:50:53.053Z,76.08
2022-09-20T19:53:24.259Z,77.04
2022-09-20T19:56:16.799Z,77.07
2022-09-20T19:58:45.579Z,76.78
2022-09-20T20:01:14.024Z,76.53
2022-09-20T20:03:44.519Z,76.44
2022-09-20T20:06:22.910Z,76.39
2022-09-20T20:09:11.055Z,76.13
2022-09-20T20:11:48.549Z,75.76
2022-09-20T20:14:43.855Z,75.33
2022-09-20T20:17:47.159Z,75.44
2022-09-20T20:20:44.127Z,75.27
2022-09-20T20:23:24.257Z,75.24
2022-09-20T20:26:03.210Z,75.07
2022-09-20T20:28:31.662Z,75.22
2022-09-20T20:31:02.370Z,75.28
2022-09-20T20:33:33.003Z,75.40
2022-09-20T20:36:02.439Z,75.58
2022-09-20T20:38:37.469Z,75.41
2022-09-20T20:41:11.589Z,75.29
2022-09-20T20:43:42.320Z,75.28
2022-09-20T20:46:14.332Z,74.52
2022-09-20T20:48:42.659Z,74.54
2022-09-20T20:51:13.810Z,74.56
2022-09-20T20:53:47.875Z,75.14
2022-09-20T20:56:28.898Z,75.43
2022-09-20T20:59:02.498Z,75.51
2022-09-20T21:01:31.735Z,75.56
2022-09-20T21:04:01.171Z,75.51
2022-09-20T21:06:32.039Z,75.59
2022-09-20T21:09:00.929Z,74.61
2022-09-20T21:11:34.735Z,74.89
2022-09-20T21:14:06.620Z,75.69
2022-09-20T21:16:37.670Z,74.28
2022-09-20T21:19:07.045Z,74.59
2022-09-20T21:21:38.778Z,75.99
2022-09-20T21:24:08.558Z,76.63
2022-09-20T21:26:38.219Z,75.98
2022-09-20T21:29:10.736Z,76.19
2022-09-20T21:31:41.015Z,76.15
2022-09-20T21:34:11.156Z,76.24
2022-09-20T21:36:41.663Z,75.94
2022-09-20T21:39:09.841Z,76.21
2022-09-20T21:41:39.443Z,76.37
2022-09-20T21:44:10.648Z,76.47
2022-09-20T21:46:41.485Z,76.40
2022-09-20T21:49:14.416Z,76.43
2022-09-20T21:51:43.200Z,76.38
2022-09-20T21:54:11.682Z,76.36
2022-09-20T21:56:41.308Z,76.31
2022-09-20T21:59:10.027Z,76.37
2022-09-20T22:01:41.454Z,75.94
2022-09-20T22:04:12.060Z,75.96
2022-09-20T22:06:42.659Z,75.94
2022-09-20T22:09:13.430Z,76.38
2022-09-20T22:11:44.805Z,76.59
2022-09-20T22:14:15.215Z,77.18
2022-09-20T22:16:45.162Z,76.82
2022-09-20T22:19:16.920Z,77.19
2022-09-20T22:21:47.954Z,77.56
2022-09-20T22:24:17.130Z,77.67
2022-09-20T22:26:50.312Z,77.49
2022-09-20T22:29:18.992Z,77.57
2022-09-20T22:31:50.266Z,77.35
2022-09-20T22:34:23.702Z,77.62
2022-09-20T22:36:52.633Z,77.60
2022-09-20T22:39:20.510Z,77.50
2022-09-20T22:41:51.029Z,77.50
2022-09-20T22:44:19.094Z,77.37
2022-09-20T22:46:47.275Z,77.35
2022-09-20T22:49:15.150Z,77.19
2022-09-20T22:51:43.314Z,77.29
2022-09-20T22:54:12.432Z,77.45
2022-09-20T22:56:43.863Z,77.51
2022-09-20T22:59:14.699Z,77.35
2022-09-20T23:01:47.344Z,77.09
2022-09-20T23:04:19.127Z,76.53
2022-09-20T23:06:54.963Z,76.37
2022-09-20T23:09:25.728Z,76.60
2022-09-20T23:11:53.801Z,76.78
2022-09-20T23:14:23.327Z,76.33
2022-09-20T23:16:51.543Z,76.62
2022-09-20T23:19:19.852Z,76.62
2022-09-20T23:21:47.995Z,76.59
2022-09-20T23:24:16.817Z,76.76
2022-09-20T23:26:45.313Z,76.67
2022-09-20T23:29:15.967Z,77.01
2022-09-20T23:31:47.146Z,76.93
2022-09-20T23:34:17.627Z,77.24
2022-09-20T23:36:46.779Z,77.56
2022-09-20T23:39:15.899Z,77.80
2022-09-20T23:41:48.432Z,78.01
2022-09-20T23:44:19.620Z,77.98
2022-09-20T23:46:47.800Z,78.42
2022-09-20T23:49:16.183Z,78.36
2022-09-20T23:51:44.110Z,78.01
2022-09-20T23:54:12.216Z,78.39
2022-09-20T23:56:41.826Z,77.91
2022-09-20T23:59:09.790Z,78.43
